createdAt,value
2024-03-14T00:00:07.563Z,100.00
2024-03-14T00:02:34.043Z,100.00
2024-03-14T00:05:00.648Z,100.00
2024-03-14T00:07:27.469Z,100.00
2024-03-14T00:09:53.956Z,100.00
2024-03-14T00:12:20.361Z,100.00
2024-03-14T00:14:51.505Z,100.00
2024-03-14T00:17:24.097Z,100.00
2024-03-14T00:19:52.388Z,100.00
2024-03-14T00:22:19.162Z,100.00
2024-03-14T00:24:46.767Z,100.00
2024-03-14T00:27:14.614Z,100.00
2024-03-14T00:29:43.507Z,100.00
2024-03-14T00:32:10.116Z,100.00
2024-03-14T00:34:37.251Z,100.00
2024-03-14T00:37:04.026Z,100.00
2024-03-14T00:39:33.079Z,100.00
2024-03-14T00:41:59.662Z,100.00
2024-03-14T00:44:26.288Z,100.00
2024-03-14T00:46:52.701Z,100.00
2024-03-14T00:49:19.175Z,100.00
2024-03-14T00:51:45.798Z,100.00
2024-03-14T00:54:12.236Z,100.00
2024-03-14T00:56:38.691Z,100.00
2024-03-14T00:59:05.091Z,100.00
2024-03-14T01:01:31.498Z,100.00
2024-03-14T01:03:58.015Z,100.00
2024-03-14T01:06:26.250Z,100.00
2024-03-14T01:08:54.371Z,100.00
2024-03-14T01:11:20.850Z,100.00
2024-03-14T01:13:47.482Z,100.00
2024-03-14T01:16:14.886Z,100.00
2024-03-14T01:18:41.579Z,100.00
2024-03-14T01:21:09.535Z,100.00
2024-03-14T01:23:37.981Z,100.00
2024-03-14T01:26:05.114Z,100.00
2024-03-14T01:28:31.549Z,100.00
2024-03-14T01:31:00.117Z,100.00
2024-03-14T01:33:26.978Z,100.00
2024-03-14T01:35:59.691Z,100.00
2024-03-14T01:38:27.788Z,100.00
2024-03-14T01:40:54.209Z,100.00
2024-03-14T01:43:20.657Z,100.00
2024-03-14T01:45:49.952Z,100.00
2024-03-14T01:48:16.450Z,100.00
2024-03-14T01:50:43.697Z,100.00
2024-03-14T01:53:11.278Z,100.00
2024-03-14T01:55:38.923Z,100.00
2024-03-14T01:58:05.985Z,100.00
2024-03-14T02:00:40.366Z,100.00
2024-03-14T02:03:07.841Z,100.00
2024-03-14T02:05:47.107Z,100.00
2024-03-14T02:08:13.776Z,100.00
2024-03-14T02:13:11.707Z,100.00
2024-03-14T02:15:39.678Z,100.00
2024-03-14T02:18:06.841Z,100.00
2024-03-14T02:20:33.362Z,100.00
2024-03-14T02:22:59.876Z,100.00
2024-03-14T02:25:26.792Z,100.00
2024-03-14T02:27:53.224Z,100.00
2024-03-14T02:30:20.100Z,100.00
2024-03-14T02:32:46.912Z,100.00
2024-03-14T02:35:13.544Z,100.00
2024-03-14T02:37:40.280Z,100.00
2024-03-14T02:40:07.810Z,100.00
2024-03-14T02:42:35.130Z,100.00
2024-03-14T02:45:01.898Z,100.00
2024-03-14T02:47:28.908Z,100.00
2024-03-14T02:49:58.231Z,100.00
2024-03-14T02:52:24.801Z,100.00
2024-03-14T02:54:51.788Z,100.00
2024-03-14T02:57:18.351Z,100.00
2024-03-14T02:59:44.815Z,100.00
2024-03-14T03:02:12.630Z,100.00
2024-03-14T03:04:39.847Z,100.00
2024-03-14T03:07:07.171Z,100.00
2024-03-14T03:09:37.129Z,100.00
2024-03-14T03:12:04.439Z,100.00
2024-03-14T03:14:31.502Z,100.00
2024-03-14T03:16:57.945Z,100.00
2024-03-14T03:19:24.337Z,100.00
2024-03-14T03:21:50.721Z,100.00
2024-03-14T03:24:17.145Z,100.00
2024-03-14T03:26:43.649Z,100.00
2024-03-14T03:29:13.423Z,100.00
2024-03-14T03:31:39.882Z,100.00
2024-03-14T03:34:08.264Z,100.00
2024-03-14T03:36:34.990Z,100.00
2024-03-14T03:39:01.646Z,100.00
2024-03-14T03:41:31.230Z,100.00
2024-03-14T03:43:58.204Z,100.00
2024-03-14T03:46:25.041Z,100.00
2024-03-14T03:48:52.634Z,100.00
2024-03-14T03:51:19.769Z,100.00
2024-03-14T03:53:47.277Z,100.00
2024-03-14T03:56:15.054Z,100.00
2024-03-14T03:58:43.931Z,100.00
2024-03-14T04:01:13.681Z,100.00
2024-03-14T04:03:43.225Z,100.00
2024-03-14T04:06:16.647Z,100.00
2024-03-14T04:08:46.676Z,100.00
2024-03-14T04:11:13.831Z,100.00
2024-03-14T04:13:40.417Z,100.00
2024-03-14T04:16:06.980Z,100.00
2024-03-14T04:18:34.036Z,100.00
2024-03-14T04:21:00.641Z,100.00
2024-03-14T04:23:27.158Z,100.00
2024-03-14T04:25:57.356Z,100.00
2024-03-14T04:28:26.988Z,100.00
2024-03-14T04:30:53.549Z,100.00
2024-03-14T04:33:20.430Z,100.00
2024-03-14T04:35:50.599Z,100.00
2024-03-14T04:38:19.589Z,100.00
2024-03-14T04:40:46.039Z,100.00
2024-03-14T04:43:12.494Z,100.00
2024-03-14T04:45:41.919Z,100.00
2024-03-14T04:48:08.550Z,100.00
2024-03-14T04:50:35.712Z,100.00
2024-03-14T04:53:02.166Z,100.00
2024-03-14T04:55:28.681Z,100.00
2024-03-14T04:57:55.166Z,100.00
2024-03-14T05:00:22.285Z,100.00
2024-03-14T05:02:50.786Z,100.00
2024-03-14T05:05:17.894Z,100.00
2024-03-14T05:07:45.481Z,100.00
2024-03-14T05:10:15.334Z,100.00
2024-03-14T05:12:43.760Z,100.00
2024-03-14T05:15:10.386Z,100.00
2024-03-14T05:17:37.564Z,100.00
2024-03-14T05:20:07.521Z,100.00
2024-03-14T05:22:34.044Z,100.00
2024-03-14T05:25:05.286Z,100.00
2024-03-14T05:27:31.859Z,100.00
2024-03-14T05:29:58.427Z,100.00
2024-03-14T05:32:29.452Z,100.00
2024-03-14T05:34:57.424Z,100.00
2024-03-14T05:37:28.387Z,100.00
2024-03-14T05:39:55.254Z,100.00
2024-03-14T05:42:21.744Z,100.00
2024-03-14T05:44:49.022Z,100.00
2024-03-14T05:47:16.939Z,100.00
2024-03-14T05:49:43.441Z,100.00
2024-03-14T05:52:11.274Z,100.00
2024-03-14T05:54:37.748Z,100.00
2024-03-14T05:57:04.581Z,100.00
2024-03-14T05:59:31.770Z,100.00
2024-03-14T06:01:58.303Z,100.00
2024-03-14T06:04:24.838Z,100.00
2024-03-14T06:06:51.299Z,100.00
2024-03-14T06:09:18.723Z,100.00
2024-03-14T06:11:45.285Z,100.00
2024-03-14T06:14:11.652Z,100.00
2024-03-14T06:16:38.371Z,100.00
2024-03-14T06:19:04.885Z,100.00
2024-03-14T06:21:31.466Z,100.00
2024-03-14T06:23:57.953Z,100.00
2024-03-14T06:26:24.529Z,100.00
2024-03-14T06:28:55.365Z,100.00
2024-03-14T06:31:21.780Z,100.00
2024-03-14T06:33:48.190Z,100.00
2024-03-14T06:36:14.664Z,100.00
2024-03-14T06:38:41.249Z,100.00
2024-03-14T06:41:08.371Z,100.00
2024-03-14T06:43:34.805Z,100.00
2024-03-14T06:46:01.187Z,100.00
2024-03-14T06:48:27.763Z,100.00
2024-03-14T06:50:54.328Z,100.00
2024-03-14T06:53:20.849Z,100.00
2024-03-14T06:55:48.032Z,100.00
2024-03-14T06:58:17.778Z,100.00
2024-03-14T07:00:44.426Z,100.00
2024-03-14T07:03:12.272Z,100.00
2024-03-14T07:05:38.898Z,100.00
2024-03-14T07:08:06.617Z,100.00
2024-03-14T07:10:33.400Z,100.00
2024-03-14T07:12:59.818Z,100.00
2024-03-14T07:15:26.540Z,100.00
2024-03-14T07:17:59.767Z,100.00
2024-03-14T07:20:34.329Z,100.00
2024-03-14T07:23:00.868Z,100.00
2024-03-14T07:25:27.437Z,100.00
2024-03-14T07:27:54.146Z,100.00
2024-03-14T07:30:25.712Z,100.00
2024-03-14T07:32:53.374Z,100.00
2024-03-14T07:35:20.013Z,100.00
2024-03-14T07:37:48.488Z,100.00
2024-03-14T07:40:18.152Z,100.00
2024-03-14T07:42:45.834Z,100.00
2024-03-14T07:45:18.667Z,100.00
2024-03-14T07:47:45.951Z,100.00
2024-03-14T07:50:12.679Z,100.00
2024-03-14T07:52:40.148Z,100.00
2024-03-14T07:55:08.437Z,100.00
2024-03-14T07:57:37.910Z,100.00
2024-03-14T08:00:16.193Z,100.00
2024-03-14T08:02:43.424Z,100.00
2024-03-14T08:05:10.070Z,100.00
2024-03-14T08:07:38.766Z,100.00
2024-03-14T08:10:06.514Z,100.00
2024-03-14T08:12:33.136Z,100.00
2024-03-14T08:15:18.207Z,100.00
2024-03-14T08:17:47.930Z,100.00
2024-03-14T08:20:17.372Z,100.00
2024-03-14T08:25:17.175Z,100.00
2024-03-14T08:27:45.032Z,100.00
2024-03-14T08:30:12.679Z,100.00
2024-03-14T08:32:39.875Z,100.00
2024-03-14T08:35:06.898Z,100.00
2024-03-14T08:37:33.338Z,100.00
2024-03-14T08:39:59.999Z,100.00
2024-03-14T08:42:40.103Z,100.00
2024-03-14T08:45:12.659Z,100.00
2024-03-14T08:47:39.968Z,100.00
2024-03-14T08:50:07.919Z,100.00
2024-03-14T08:52:34.997Z,100.00
2024-03-14T08:55:01.607Z,100.00
2024-03-14T08:57:28.092Z,100.00
2024-03-14T08:59:55.136Z,100.00
2024-03-14T09:02:24.376Z,100.00
2024-03-14T09:04:52.591Z,100.00
2024-03-14T09:07:19.815Z,100.00
2024-03-14T09:09:46.234Z,100.00
2024-03-14T09:12:17.833Z,100.00
2024-03-14T09:14:44.609Z,100.00
2024-03-14T09:17:12.791Z,100.00
2024-03-14T09:19:40.456Z,100.00
2024-03-14T09:22:07.538Z,100.00
2024-03-14T09:24:37.857Z,100.00
2024-03-14T09:27:06.045Z,100.00
2024-03-14T09:29:33.778Z,100.00
2024-03-14T09:32:00.512Z,100.00
2024-03-14T09:34:28.239Z,100.00
2024-03-14T09:36:56.584Z,100.00
2024-03-14T09:39:23.211Z,100.00
2024-03-14T09:41:49.902Z,100.00
2024-03-14T09:44:19.444Z,100.00
2024-03-14T09:47:11.717Z,100.00
2024-03-14T09:49:38.578Z,100.00
2024-03-14T09:52:06.689Z,100.00
2024-03-14T09:54:33.724Z,100.00
2024-03-14T09:57:00.853Z,100.00
2024-03-14T09:59:28.440Z,100.00
2024-03-14T10:01:55.174Z,100.00
2024-03-14T10:04:22.796Z,100.00
2024-03-14T10:06:49.663Z,100.00
2024-03-14T10:09:27.573Z,100.00
2024-03-14T10:12:03.544Z,100.00
2024-03-14T10:14:33.736Z,100.00
2024-03-14T10:17:00.534Z,100.00
2024-03-14T10:19:36.473Z,100.00
2024-03-14T10:22:05.571Z,100.00
2024-03-14T10:24:34.599Z,100.00
2024-03-14T10:27:03.212Z,100.00
2024-03-14T10:29:34.267Z,100.00
2024-03-14T10:32:01.561Z,100.00
2024-03-14T10:34:27.998Z,100.00
2024-03-14T10:36:55.598Z,100.00
2024-03-14T10:39:27.704Z,100.00
2024-03-14T10:41:54.304Z,100.00
2024-03-14T10:44:22.636Z,100.00
2024-03-14T10:46:51.311Z,100.00
2024-03-14T10:49:22.079Z,100.00
2024-03-14T10:51:55.634Z,100.00
2024-03-14T10:54:25.063Z,100.00
2024-03-14T10:56:51.697Z,100.00
2024-03-14T10:59:21.163Z,100.00
2024-03-14T11:01:58.103Z,100.00
2024-03-14T11:04:25.300Z,100.00
2024-03-14T11:06:53.549Z,100.00
2024-03-14T11:09:30.941Z,100.00
2024-03-14T11:12:04.952Z,100.00
2024-03-14T11:14:37.999Z,100.00
2024-03-14T11:17:04.803Z,100.00
2024-03-14T11:19:31.956Z,100.00
2024-03-14T11:21:59.284Z,100.00
2024-03-14T11:24:32.946Z,100.00
2024-03-14T11:27:02.941Z,100.00
2024-03-14T11:29:34.195Z,100.00
2024-03-14T11:32:23.500Z,100.00
2024-03-14T11:34:50.169Z,100.00
2024-03-14T11:37:17.757Z,100.00
2024-03-14T11:39:48.869Z,100.00
2024-03-14T11:42:17.335Z,100.00
2024-03-14T11:44:46.102Z,100.00
2024-03-14T11:47:15.348Z,100.00
2024-03-14T11:49:44.419Z,100.00
2024-03-14T11:52:12.629Z,100.00
2024-03-14T11:54:42.461Z,100.00
2024-03-14T11:57:10.550Z,100.00
2024-03-14T11:59:43.709Z,100.00
2024-03-14T12:02:17.504Z,100.00
2024-03-14T12:04:48.377Z,100.00
2024-03-14T12:07:14.972Z,100.00
2024-03-14T12:09:42.380Z,100.00
2024-03-14T12:12:09.785Z,100.00
2024-03-14T12:14:36.590Z,100.00
2024-03-14T12:17:03.248Z,100.00
2024-03-14T12:19:29.715Z,100.00
2024-03-14T12:21:56.182Z,100.00
2024-03-14T12:24:25.581Z,100.00
2024-03-14T12:26:54.648Z,100.00
2024-03-14T12:29:27.915Z,100.00
2024-03-14T12:31:56.545Z,100.00
2024-03-14T12:34:23.904Z,100.00
2024-03-14T12:36:53.325Z,100.00
2024-03-14T12:39:19.741Z,100.00
2024-03-14T12:41:46.356Z,100.00
2024-03-14T12:44:13.370Z,100.00
2024-03-14T12:46:39.965Z,100.00
2024-03-14T12:49:08.871Z,100.00
2024-03-14T12:51:35.393Z,100.00
2024-03-14T12:54:02.333Z,100.00
2024-03-14T12:56:29.257Z,100.00
2024-03-14T12:58:57.636Z,100.00
2024-03-14T13:01:28.776Z,100.00
2024-03-14T13:03:59.945Z,100.00
2024-03-14T13:06:29.568Z,100.00
2024-03-14T13:09:18.293Z,100.00
2024-03-14T13:12:15.977Z,100.00
2024-03-14T13:14:43.122Z,100.00
2024-03-14T13:17:14.570Z,100.00
2024-03-14T13:19:41.636Z,100.00
2024-03-14T13:22:12.330Z,100.00
2024-03-14T13:24:39.135Z,100.00
2024-03-14T13:27:06.359Z,100.00
2024-03-14T13:29:32.938Z,100.00
2024-03-14T13:32:02.058Z,100.00
2024-03-14T13:34:28.466Z,100.00
2024-03-14T13:36:55.046Z,100.00
2024-03-14T13:39:24.477Z,99.82
2024-03-14T13:41:50.890Z,96.38
2024-03-14T13:44:17.345Z,97.92
2024-03-14T13:46:46.066Z,96.11
2024-03-14T13:49:13.028Z,95.67
2024-03-14T13:51:40.303Z,96.02
2024-03-14T13:54:07.735Z,96.09
2024-03-14T13:56:34.406Z,95.28
2024-03-14T13:59:03.804Z,93.13
2024-03-14T14:01:35.231Z,92.51
2024-03-14T14:04:04.052Z,95.21
2024-03-14T14:06:31.017Z,96.05
2024-03-14T14:08:57.931Z,96.98
2024-03-14T14:11:25.181Z,95.52
2024-03-14T14:13:51.733Z,96.24
2024-03-14T14:16:19.618Z,97.45
2024-03-14T14:18:46.218Z,96.83
2024-03-14T14:21:12.738Z,97.53
2024-03-14T14:23:39.198Z,97.78
2024-03-14T14:26:05.910Z,96.31
2024-03-14T14:28:32.322Z,96.14
2024-03-14T14:30:58.870Z,96.02
2024-03-14T14:33:27.508Z,96.88
2024-03-14T14:35:55.056Z,98.77
2024-03-14T14:38:22.081Z,93.85
2024-03-14T14:40:51.880Z,95.98
2024-03-14T14:43:18.335Z,94.38
2024-03-14T14:45:45.091Z,93.70
2024-03-14T14:48:11.615Z,92.73
2024-03-14T14:50:38.608Z,94.52
2024-03-14T14:53:07.938Z,94.78
2024-03-14T14:55:34.404Z,93.21
2024-03-14T14:58:03.251Z,92.44
2024-03-14T15:00:29.841Z,92.89
2024-03-14T15:02:56.530Z,92.59
2024-03-14T15:05:23.167Z,92.48
2024-03-14T15:07:51.404Z,92.79
2024-03-14T15:10:19.222Z,93.49
2024-03-14T15:12:53.860Z,90.81
2024-03-14T15:15:25.190Z,92.22
2024-03-14T15:17:52.555Z,91.13
2024-03-14T15:20:22.574Z,89.71
2024-03-14T15:22:50.166Z,88.76
2024-03-14T15:25:17.929Z,90.03
2024-03-14T15:27:46.951Z,92.63
2024-03-14T15:30:13.621Z,92.65
2024-03-14T15:32:43.493Z,91.69
2024-03-14T15:35:12.360Z,93.19
2024-03-14T15:37:39.899Z,93.77
2024-03-14T15:40:10.953Z,95.41
2024-03-14T15:42:37.631Z,95.14
2024-03-14T15:45:10.253Z,95.98
2024-03-14T15:47:37.002Z,95.13
2024-03-14T15:50:05.840Z,96.17
2024-03-14T15:52:33.190Z,97.04
2024-03-14T15:54:59.684Z,97.88
2024-03-14T15:57:26.079Z,97.45
2024-03-14T15:59:54.494Z,97.46
2024-03-14T16:02:20.948Z,95.59
2024-03-14T16:04:47.749Z,96.07
2024-03-14T16:07:14.285Z,96.51
2024-03-14T16:09:44.321Z,96.08
2024-03-14T16:12:11.150Z,96.29
2024-03-14T16:14:37.736Z,95.69
2024-03-14T16:17:04.408Z,94.78
2024-03-14T16:19:31.233Z,96.24
2024-03-14T16:21:58.210Z,96.23
2024-03-14T16:24:26.937Z,94.62
2024-03-14T16:26:54.101Z,94.18
2024-03-14T16:29:21.561Z,95.03
2024-03-14T16:31:51.959Z,94.96
2024-03-14T16:34:18.436Z,94.86
2024-03-14T16:36:45.973Z,95.32
2024-03-14T16:39:19.894Z,95.91
2024-03-14T16:41:50.909Z,97.54
2024-03-14T16:44:17.482Z,97.57
2024-03-14T16:46:44.763Z,98.36
2024-03-14T16:49:12.947Z,98.67
2024-03-14T16:51:41.194Z,99.33
2024-03-14T16:54:09.856Z,100.00
2024-03-14T16:56:37.947Z,100.00
2024-03-14T16:59:07.062Z,99.62
2024-03-14T17:01:35.536Z,100.00
2024-03-14T17:04:02.003Z,100.00
2024-03-14T17:06:28.415Z,100.00
2024-03-14T17:08:55.336Z,99.72
2024-03-14T17:11:24.695Z,100.00
2024-03-14T17:13:53.166Z,99.32
2024-03-14T17:16:21.428Z,100.00
2024-03-14T17:18:48.418Z,100.00
2024-03-14T17:21:16.830Z,100.00
2024-03-14T17:23:43.305Z,100.00
2024-03-14T17:26:09.808Z,100.00
2024-03-14T17:28:36.769Z,100.00
2024-03-14T17:31:06.765Z,100.00
2024-03-14T17:33:36.698Z,100.00
2024-03-14T17:36:03.634Z,100.00
2024-03-14T17:38:30.025Z,100.00
2024-03-14T17:40:56.457Z,100.00
2024-03-14T17:43:23.581Z,100.00
2024-03-14T17:45:50.355Z,100.00
2024-03-14T17:48:16.888Z,100.00
2024-03-14T17:50:43.396Z,100.00
2024-03-14T17:53:09.800Z,100.00
2024-03-14T17:55:37.785Z,100.00
2024-03-14T17:58:05.336Z,100.00
2024-03-14T18:00:32.163Z,100.00
2024-03-14T18:03:00.349Z,100.00
2024-03-14T18:05:27.432Z,100.00
2024-03-14T18:07:53.904Z,100.00
2024-03-14T18:10:21.143Z,100.00
2024-03-14T18:12:47.991Z,100.00
2024-03-14T18:15:17.138Z,100.00
2024-03-14T18:17:44.162Z,100.00
2024-03-14T18:20:12.016Z,100.00
2024-03-14T18:22:42.220Z,100.00
2024-03-14T18:25:11.096Z,100.00
2024-03-14T18:27:38.537Z,100.00
2024-03-14T18:30:13.649Z,100.00
2024-03-14T18:32:44.224Z,100.00
2024-03-14T18:35:17.303Z,100.00
2024-03-14T18:37:47.827Z,100.00
2024-03-14T18:40:19.705Z,100.00
2024-03-14T18:42:48.220Z,100.00
2024-03-14T18:45:14.902Z,100.00
2024-03-14T18:47:41.561Z,100.00
2024-03-14T18:50:12.376Z,100.00
2024-03-14T18:52:42.408Z,100.00
2024-03-14T18:55:10.537Z,100.00
2024-03-14T18:57:37.368Z,100.00
2024-03-14T19:00:07.072Z,100.00
2024-03-14T19:02:34.815Z,100.00
2024-03-14T19:05:01.203Z,100.00
2024-03-14T19:07:27.695Z,100.00
2024-03-14T19:09:54.224Z,100.00
2024-03-14T19:12:20.700Z,100.00
2024-03-14T19:14:47.240Z,100.00
2024-03-14T19:17:19.227Z,100.00
2024-03-14T19:19:48.316Z,100.00
2024-03-14T19:22:14.749Z,100.00
2024-03-14T19:24:41.237Z,100.00
2024-03-14T19:27:08.306Z,100.00
2024-03-14T19:29:34.832Z,100.00
2024-03-14T19:32:01.946Z,100.00
2024-03-14T19:34:28.413Z,100.00
2024-03-14T19:36:54.912Z,100.00
2024-03-14T19:39:22.108Z,100.00
2024-03-14T19:41:49.492Z,100.00
2024-03-14T19:44:15.895Z,100.00
2024-03-14T19:46:45.223Z,100.00
2024-03-14T19:49:13.939Z,100.00
2024-03-14T19:51:40.455Z,100.00
2024-03-14T19:54:06.989Z,100.00
2024-03-14T19:56:37.141Z,100.00
2024-03-14T19:59:03.632Z,100.00
2024-03-14T20:01:30.031Z,100.00
2024-03-14T20:03:56.493Z,100.00
2024-03-14T20:06:24.026Z,100.00
2024-03-14T20:08:50.752Z,100.00
2024-03-14T20:11:17.397Z,100.00
2024-03-14T20:13:43.936Z,100.00
2024-03-14T20:16:15.368Z,100.00
2024-03-14T20:18:41.981Z,100.00
2024-03-14T20:21:11.276Z,100.00
2024-03-14T20:23:37.812Z,100.00
2024-03-14T20:26:12.313Z,100.00
2024-03-14T20:28:39.392Z,100.00
2024-03-14T20:31:06.131Z,100.00
2024-03-14T20:33:32.874Z,100.00
2024-03-14T20:36:00.155Z,100.00
2024-03-14T20:38:28.804Z,100.00
2024-03-14T20:40:58.678Z,100.00
2024-03-14T20:43:25.226Z,100.00
2024-03-14T20:45:51.771Z,100.00
2024-03-14T20:48:18.813Z,100.00
2024-03-14T20:50:45.738Z,100.00
2024-03-14T20:53:13.010Z,100.00
2024-03-14T20:55:59.609Z,100.00
2024-03-14T20:58:30.309Z,100.00
2024-03-14T21:00:56.728Z,100.00
2024-03-14T21:03:24.098Z,100.00
2024-03-14T21:05:53.144Z,100.00
2024-03-14T21:08:19.839Z,100.00
2024-03-14T21:10:46.360Z,100.00
2024-03-14T21:13:13.247Z,100.00
2024-03-14T21:15:40.620Z,100.00
2024-03-14T21:18:08.241Z,100.00
2024-03-14T21:20:34.765Z,100.00
2024-03-14T21:23:01.479Z,100.00
2024-03-14T21:25:27.918Z,100.00
2024-03-14T21:28:00.728Z,100.00
2024-03-14T21:30:30.708Z,100.00
2024-03-14T21:32:57.184Z,100.00
2024-03-14T21:35:24.198Z,100.00
2024-03-14T21:37:54.575Z,100.00
2024-03-14T21:40:24.138Z,100.00
2024-03-14T21:42:51.893Z,100.00
2024-03-14T21:45:19.936Z,100.00
2024-03-14T21:47:46.958Z,100.00
2024-03-14T21:50:15.712Z,100.00
2024-03-14T21:52:42.523Z,100.00
2024-03-14T21:55:09.371Z,100.00
2024-03-14T21:57:36.861Z,100.00
2024-03-14T22:00:04.036Z,100.00
2024-03-14T22:02:30.684Z,100.00
2024-03-14T22:04:59.089Z,100.00
2024-03-14T22:07:26.483Z,100.00
2024-03-14T22:09:53.186Z,100.00
2024-03-14T22:12:19.654Z,100.00
2024-03-14T22:14:46.284Z,100.00
2024-03-14T22:17:12.682Z,100.00
2024-03-14T22:19:39.870Z,100.00
2024-03-14T22:22:09.206Z,100.00
2024-03-14T22:24:35.877Z,100.00
2024-03-14T22:27:03.113Z,100.00
2024-03-14T22:29:29.689Z,100.00
2024-03-14T22:31:56.076Z,100.00
2024-03-14T22:34:22.610Z,100.00
2024-03-14T22:36:49.866Z,100.00
2024-03-14T22:39:16.612Z,100.00
2024-03-14T22:41:43.152Z,100.00
2024-03-14T22:44:11.454Z,100.00
2024-03-14T22:46:37.987Z,100.00
2024-03-14T22:49:07.088Z,100.00
2024-03-14T22:51:33.647Z,100.00
2024-03-14T22:54:00.092Z,100.00
2024-03-14T22:56:26.496Z,100.00
2024-03-14T22:58:52.951Z,100.00
2024-03-14T23:01:20.629Z,100.00
2024-03-14T23:03:47.396Z,100.00
2024-03-14T23:06:17.807Z,100.00
2024-03-14T23:08:45.139Z,100.00
2024-03-14T23:11:12.251Z,100.00
2024-03-14T23:13:38.700Z,100.00
2024-03-14T23:16:08.427Z,100.00
2024-03-14T23:18:34.994Z,100.00
2024-03-14T23:21:02.217Z,100.00
2024-03-14T23:23:28.824Z,100.00
2024-03-14T23:25:57.948Z,100.00
2024-03-14T23:28:27.369Z,100.00
2024-03-14T23:30:53.810Z,100.00
2024-03-14T23:33:20.338Z,100.00
2024-03-14T23:35:47.711Z,100.00
2024-03-14T23:38:14.349Z,100.00
2024-03-14T23:40:41.149Z,100.00
2024-03-14T23:43:07.677Z,100.00
2024-03-14T23:45:35.592Z,100.00
2024-03-14T23:48:02.704Z,100.00
2024-03-14T23:50:30.087Z,100.00
2024-03-14T23:52:56.690Z,100.00
2024-03-14T23:55:23.234Z,100.00
2024-03-14T23:57:49.932Z,100.00
